Time;durP1;ratioP1;P1;durP2;ratioP2;P2;SDS_P1;SDS_P2;PMS_P1;PMS_P2;Temp;Humidity;BMP_temperature;BMP_pressure;BME280_temperature;BME280_humidity;BME280_pressure;Samples;Min_cycle;Max_cycle;Signal;HPM_P1;HPM_P2
2023/08/20 00:04:03;;;;;;;10.65;7.05;;;;;;;25.74;78.87;99492.75;7308561;39;20249;31
2023/08/20 00:09:21;;;;;;;9.68;6.97;;;;;;;25.74;78.83;99493.59;7338428;39;21714;31
2023/08/20 00:15:08;;;;;;;11.05;7.40;;;;;;;25.67;79.45;99495.69;7335411;39;20291;31
2023/08/20 00:25:33;;;;;;;8.95;7.22;;;;;;;25.64;79.19;99495.38;7376471;39;20785;31
2023/08/20 00:31:07;;;;;;;9.05;6.90;;;;;;;25.54;78.88;99507.97;7334917;39;20252;31
2023/08/20 00:36:27;;;;;;;8.10;6.85;;;;;;;25.47;79.44;99504.53;7324973;39;20508;31
2023/08/20 00:41:45;;;;;;;7.90;7.18;;;;;;;25.44;79.39;99510.59;7355475;39;20544;31
2023/08/20 00:47:15;;;;;;;10.00;6.90;;;;;;;25.40;79.24;99497.53;7282553;40;21305;31
2023/08/20 00:52:50;;;;;;;9.45;7.45;;;;;;;25.41;79.18;99515.75;7297746;39;20251;31
2023/08/20 00:58:25;;;;;;;10.07;7.28;;;;;;;25.38;78.81;99510.75;7349939;39;20455;31
2023/08/20 01:04:01;;;;;;;10.15;7.10;;;;;;;25.36;79.38;99513.75;7301328;39;20325;31
2023/08/20 01:09:36;;;;;;;8.02;7.05;;;;;;;25.33;80.31;99514.28;7232635;40;20988;31
2023/08/20 01:14:56;;;;;;;8.80;7.75;;;;;;;25.23;80.04;99507.78;7244681;40;20245;31
2023/08/20 01:20:32;;;;;;;9.98;7.68;;;;;;;25.18;80.46;99505.78;7232348;40;20506;31
2023/08/20 01:26:09;;;;;;;8.70;7.10;;;;;;;25.17;80.94;99514.31;7262947;39;20338;31
2023/08/20 01:31:45;;;;;;;8.47;7.60;;;;;;;25.18;80.08;99514.06;7281747;39;20426;31
2023/08/20 01:37:06;;;;;;;8.10;7.10;;;;;;;25.13;79.13;99503.78;7329223;39;20252;31
2023/08/20 01:42:40;;;;;;;8.98;6.57;;;;;;;25.03;80.27;99505.56;7368687;39;20415;31
2023/08/20 01:48:17;;;;;;;7.15;6.40;;;;;;;24.98;79.46;99499.97;7337323;39;20267;31
2023/08/20 01:54:04;;;;;;;6.65;5.87;;;;;;;24.91;79.79;99497.37;7343187;39;20450;31
2023/08/20 02:04:44;;;;;;;8.40;6.70;;;;;;;24.66;79.85;99500.53;7314273;39;20318;31
2023/08/20 02:10:21;;;;;;;8.57;6.65;;;;;;;24.41;80.76;99504.78;7290342;39;20248;31
2023/08/20 02:15:41;;;;;;;6.87;6.18;;;;;;;24.28;80.10;99500.41;7316205;39;20245;31
2023/08/20 02:21:16;;;;;;;8.80;6.12;;;;;;;24.30;80.35;99502.94;7296789;39;20249;31
2023/08/20 02:26:48;;;;;;;7.70;6.57;;;;;;;24.29;80.65;99499.34;7281127;39;20331;31
2023/08/20 02:37:28;;;;;;;10.02;6.70;;;;;;;24.14;80.75;99499.84;7330361;39;20287;31
2023/08/20 02:48:04;;;;;;;7.80;6.07;;;;;;;24.11;81.39;99494.84;7312115;39;21475;31
2023/08/20 02:58:41;;;;;;;8.57;7.12;;;;;;;23.99;83.98;99491.31;7350017;39;21244;31
2023/08/20 03:09:17;;;;;;;10.27;8.17;;;;;;;23.87;84.64;99504.28;7364266;39;20470;31
2023/08/20 03:19:57;;;;;;;10.40;7.45;;;;;;;23.87;84.77;99508.97;7359336;39;21548;31
2023/08/20 03:30:23;;;;;;;8.67;7.17;;;;;;;23.90;83.43;99503.81;7301146;39;20302;31
2023/08/20 03:35:59;;;;;;;10.25;7.75;;;;;;;23.88;83.07;99502.38;7311628;39;20350;31
2023/08/20 03:41:19;;;;;;;7.50;6.75;;;;;;;23.87;83.15;99501.53;7344268;39;20783;31
2023/08/20 03:46:39;;;;;;;9.55;7.53;;;;;;;23.85;84.83;99495.44;7395842;39;20259;31
2023/08/20 03:57:17;;;;;;;9.25;7.65;;;;;;;23.80;84.30;99487.06;7388182;39;21258;31
2023/08/20 04:02:52;;;;;;;8.80;7.10;;;;;;;23.85;83.62;99500.13;7353409;39;20261;31
2023/08/20 04:08:27;;;;;;;12.77;7.85;;;;;;;23.79;83.56;99494.50;7324435;39;20424;31
2023/08/20 04:14:03;;;;;;;9.10;7.20;;;;;;;23.76;84.86;99508.75;7315619;39;20268;31
2023/08/20 04:19:35;;;;;;;8.23;7.43;;;;;;;23.73;83.65;99508.41;7312927;39;20271;31
2023/08/20 04:25:10;;;;;;;7.55;6.82;;;;;;;23.71;83.41;99510.56;7270601;40;20249;31
2023/08/20 04:30:46;;;;;;;7.65;6.75;;;;;;;23.73;83.28;99519.44;7283262;40;20280;31
2023/08/20 04:36:06;;;;;;;10.67;7.17;;;;;;;23.69;83.54;99512.75;7243262;40;20269;31
2023/08/20 04:41:27;;;;;;;7.35;6.65;;;;;;;23.68;84.35;99530.34;7341790;39;21123;31
2023/08/20 04:47:01;;;;;;;8.15;7.25;;;;;;;23.66;83.79;99527.81;7359670;39;20247;31
2023/08/20 04:52:21;;;;;;;8.95;6.45;;;;;;;23.74;83.59;99529.34;7329581;39;20423;31
2023/08/20 04:57:41;;;;;;;9.30;6.72;;;;;;;23.75;83.57;99520.00;7316439;39;20522;31
2023/08/20 05:03:17;;;;;;;8.55;7.25;;;;;;;23.76;84.46;99522.53;7328682;39;20251;31
2023/08/20 05:13:38;;;;;;;7.40;6.80;;;;;;;23.78;83.90;99527.81;7300940;39;21398;31
2023/08/20 05:24:16;;;;;;;8.60;6.20;;;;;;;23.91;84.14;99537.69;7383596;39;21295;31
2023/08/20 05:29:51;;;;;;;6.65;5.90;;;;;;;24.02;83.69;99545.06;7375171;39;20443;31
2023/08/20 05:40:29;;;;;;;7.30;6.00;;;;;;;24.15;81.72;99559.41;7333769;39;21227;31
2023/08/20 05:50:50;;;;;;;7.18;5.70;;;;;;;24.41;82.32;99546.94;7358827;39;21511;31
2023/08/20 05:56:26;;;;;;;7.97;6.10;;;;;;;24.49;82.42;99559.47;7355382;39;20255;31
2023/08/20 06:01:46;;;;;;;6.50;5.85;;;;;;;24.57;80.93;99559.09;7345605;39;20266;31
2023/08/20 06:07:06;;;;;;;7.90;5.50;;;;;;;24.57;82.16;99565.44;7357692;39;20431;31
2023/08/20 06:12:42;;;;;;;8.38;6.40;;;;;;;24.57;82.34;99572.88;7356090;39;20412;31
2023/08/20 06:18:17;;;;;;;6.65;6.00;;;;;;;24.59;82.02;99590.00;7340609;39;20342;31
2023/08/20 06:23:37;;;;;;;7.70;6.45;;;;;;;24.58;81.46;99582.81;7359705;39;20459;31
2023/08/20 06:34:16;;;;;;;7.60;5.85;;;;;;;24.91;81.70;99596.69;7360091;39;21188;31
2023/08/20 06:39:36;;;;;;;8.05;6.00;;;;;;;25.07;80.23;99604.13;7337731;39;20243;31
2023/08/20 06:44:56;;;;;;;6.55;5.95;;;;;;;25.07;80.77;99593.09;7356036;39;20354;31
2023/08/20 06:50:28;;;;;;;8.15;6.05;;;;;;;25.15;80.73;99591.81;7377867;39;20426;31
2023/08/20 06:55:49;;;;;;;8.60;5.80;;;;;;;25.28;79.92;99602.50;7334103;39;20266;31
2023/08/20 07:01:23;;;;;;;7.30;5.90;;;;;;;25.35;79.32;99603.19;7327725;39;20419;31
2023/08/20 07:06:59;;;;;;;7.40;5.80;;;;;;;25.43;79.78;99616.56;7354740;39;20448;31
2023/08/20 07:12:19;;;;;;;6.57;5.43;;;;;;;25.62;79.27;99610.78;7055909;40;20237;31
2023/08/20 07:17:39;;;;;;;5.55;5.05;;;;;;;25.79;76.95;99606.91;7257226;40;20319;31
2023/08/20 07:23:15;;;;;;;7.25;5.35;;;;;;;25.96;75.28;99617.88;7247533;40;20268;31
2023/08/20 07:28:59;;;;;;;6.43;5.40;;;;;;;26.14;74.89;99625.03;7250358;40;20492;31
2023/08/20 07:34:19;;;;;;;9.65;5.20;;;;;;;26.33;74.18;99631.91;7238642;40;20244;31
2023/08/20 07:39:55;;;;;;;7.28;5.37;;;;;;;26.44;73.93;99631.78;7298229;39;20552;31
2023/08/20 07:45:15;;;;;;;6.60;6.00;;;;;;;26.57;74.34;99630.53;7254588;40;20240;31
2023/08/20 07:50:50;;;;;;;7.20;5.40;;;;;;;26.74;73.59;99638.72;7287278;39;20444;31
2023/08/20 07:56:28;;;;;;;8.12;5.32;;;;;;;26.93;71.56;99644.78;7312988;39;20241;31
2023/08/20 08:06:50;;;;;;;6.05;5.22;;;;;;;27.28;71.61;99636.78;7319002;39;21248;31
2023/08/20 08:17:29;;;;;;;6.40;4.97;;;;;;;27.71;70.76;99639.34;7329866;39;20453;31
2023/08/20 08:22:47;;;;;;;6.40;4.80;;;;;;;27.92;67.28;99648.59;7338661;39;20346;31
2023/08/20 08:28:07;;;;;;;5.55;4.72;;;;;;;28.12;67.80;99650.69;7375973;39;20337;31
2023/08/20 08:33:44;;;;;;;7.05;4.60;;;;;;;28.31;65.24;99645.47;7355923;39;20247;31
2023/08/20 08:39:19;;;;;;;8.95;4.50;;;;;;;28.44;66.79;99654.12;7323854;39;20453;31
2023/08/20 08:44:51;;;;;;;4.90;4.40;;;;;;;28.72;65.16;99640.91;7313392;39;20481;31
2023/08/20 08:50:27;;;;;;;8.60;4.15;;;;;;;28.86;63.03;99658.72;7272973;40;20285;31
2023/08/20 09:01:03;;;;;;;4.15;3.58;;;;;;;29.06;61.17;99665.13;7286450;39;21249;31
2023/08/20 09:11:40;;;;;;;6.53;3.58;;;;;;;29.38;59.24;99669.62;7364667;39;20439;31
2023/08/20 09:17:13;;;;;;;5.02;3.26;;;;;;;29.54;56.66;99668.50;7318456;39;20244;31
2023/08/20 09:22:48;;;;;;;5.72;3.70;;;;;;;29.65;56.59;99664.59;7313137;39;20287;31
2023/08/20 09:28:21;;;;;;;4.30;3.90;;;;;;;29.77;57.36;99672.63;7314401;39;20256;31
2023/08/20 09:33:58;;;;;;;3.67;3.37;;;;;;;29.92;57.47;99661.53;7293864;39;21856;31
2023/08/20 09:44:35;;;;;;;5.37;3.85;;;;;;;30.35;55.70;99655.25;7323416;39;21137;31
2023/08/20 09:50:08;;;;;;;4.94;3.70;;;;;;;30.58;55.16;99675.22;7344315;39;20343;31
2023/08/20 09:55:42;;;;;;;5.60;3.90;;;;;;;30.62;54.38;99659.63;7336012;39;20262;31
2023/08/20 10:01:17;;;;;;;5.90;3.75;;;;;;;30.65;55.36;99667.38;7351193;39;20333;31
2023/08/20 10:06:50;;;;;;;5.60;3.97;;;;;;;30.73;54.64;99664.00;7274683;39;20264;31
2023/08/20 10:12:23;;;;;;;5.30;3.65;;;;;;;30.85;53.23;99670.03;7284374;40;20249;31
2023/08/20 10:18:00;;;;;;;7.43;4.03;;;;;;;31.10;54.09;99655.16;7286076;39;22081;31
2023/08/20 10:23:33;;;;;;;6.96;4.10;;;;;;;31.28;53.06;99655.28;7220157;40;20258;31
2023/08/20 10:28:50;;;;;;;4.26;3.70;;;;;;;31.50;52.68;99652.03;7243310;40;20288;31
2023/08/20 10:39:37;;;;;;;4.53;3.87;;;;;;;31.54;51.69;99650.31;7286356;39;20330;31
2023/08/20 10:45:12;;;;;;;5.02;4.24;;;;;;;31.71;52.63;99644.34;7237281;40;20409;31
2023/08/20 10:50:44;;;;;;;4.55;3.60;;;;;;;31.97;51.06;99653.25;7282883;39;20260;31
2023/08/20 10:56:24;;;;;;;4.20;3.80;;;;;;;32.04;50.38;99657.34;7294014;39;20287;31
2023/08/20 11:01:56;;;;;;;5.26;3.50;;;;;;;32.21;49.23;99637.34;7222184;40;20348;31
2023/08/20 11:07:28;;;;;;;5.43;4.05;;;;;;;32.23;50.89;99640.69;7272748;40;20252;31
2023/08/20 11:13:03;;;;;;;4.62;3.70;;;;;;;32.28;50.18;99642.59;7295787;40;20268;31
2023/08/20 11:18:38;;;;;;;6.12;4.10;;;;;;;32.11;52.26;99643.91;7251187;40;20256;31
2023/08/20 11:24:10;;;;;;;5.00;3.70;;;;;;;32.06;50.08;99646.72;7275000;39;20254;31
2023/08/20 11:29:43;;;;;;;4.85;3.40;;;;;;;31.67;51.24;99640.47;7213689;40;20272;31
2023/08/20 11:35:14;;;;;;;5.35;3.92;;;;;;;32.19;51.71;99629.31;7235566;40;20424;31
2023/08/20 11:40:31;;;;;;;6.87;4.12;;;;;;;32.43;49.70;99629.25;7225183;40;20283;31
2023/08/20 11:46:05;;;;;;;6.15;3.67;;;;;;;32.46;50.24;99639.84;7288926;39;20256;31
2023/08/20 11:51:37;;;;;;;5.00;3.90;;;;;;;32.80;48.49;99645.25;7236200;40;20300;31
2023/08/20 11:57:12;;;;;;;4.55;3.67;;;;;;;32.99;50.16;99634.91;7246727;39;21149;31
2023/08/20 12:02:46;;;;;;;6.55;3.60;;;;;;;33.16;48.89;99630.75;7234870;40;20389;31
2023/08/20 12:08:06;;;;;;;6.98;3.52;;;;;;;33.13;48.97;99626.56;7260632;40;20389;31
2023/08/20 12:13:42;;;;;;;5.87;3.43;;;;;;;33.13;47.72;99625.75;7258195;40;20296;31
2023/08/20 12:19:15;;;;;;;5.02;3.44;;;;;;;33.25;45.90;99610.22;7229865;40;20335;31
2023/08/20 12:24:50;;;;;;;3.40;3.10;;;;;;;33.39;45.92;99616.66;7291740;39;20254;31
2023/08/20 12:30:05;;;;;;;4.62;3.50;;;;;;;33.63;45.64;99613.72;7271231;40;20248;31
2023/08/20 12:35:38;;;;;;;3.92;3.50;;;;;;;33.74;45.30;99606.00;7334074;39;20354;31
2023/08/20 12:41:13;;;;;;;6.80;3.47;;;;;;;33.65;44.54;99605.84;7278774;40;20261;31
2023/08/20 12:46:30;;;;;;;5.83;3.77;;;;;;;33.59;45.41;99595.88;7276213;40;22317;31
2023/08/20 12:52:07;;;;;;;5.07;3.12;;;;;;;33.50;43.94;99592.13;7353109;39;20379;31
2023/08/20 13:02:46;;;;;;;8.05;3.20;;;;;;;33.32;43.34;99584.63;7361453;39;21401;31
2023/08/20 13:08:23;;;;;;;3.42;3.00;;;;;;;33.44;44.36;99583.00;7379759;39;20286;31
2023/08/20 13:13:41;;;;;;;4.98;3.04;;;;;;;33.53;43.00;99583.13;7277811;40;20264;31
2023/08/20 13:19:14;;;;;;;4.25;3.00;;;;;;;33.26;45.00;99580.28;7296580;39;20244;31
2023/08/20 13:29:54;;;;;;;5.03;3.10;;;;;;;33.36;44.87;99582.87;7323580;39;20305;31
2023/08/20 13:40:33;;;;;;;4.87;3.58;;;;;;;33.39;45.70;99571.12;7366812;39;20419;31
2023/08/20 13:51:13;;;;;;;5.40;3.30;;;;;;;33.49;43.47;99568.09;7295876;39;20433;31
2023/08/20 13:56:45;;;;;;;5.80;3.20;;;;;;;33.55;44.24;99566.87;7296138;39;20267;31
2023/08/20 14:02:21;;;;;;;3.97;2.92;;;;;;;33.59;44.87;99555.91;7281925;39;20287;31
2023/08/20 14:07:57;;;;;;;6.13;3.17;;;;;;;33.71;44.17;99545.91;7070807;40;21336;31
2023/08/20 14:13:32;;;;;;;3.45;2.60;;;;;;;33.58;44.34;99551.44;7264514;39;20353;31
2023/08/20 14:18:53;;;;;;;5.80;3.17;;;;;;;33.83;43.68;99543.41;7261289;40;20548;31
2023/08/20 14:24:29;;;;;;;8.32;3.10;;;;;;;33.85;43.48;99549.53;7279066;40;20260;31
2023/08/20 14:30:02;;;;;;;3.80;3.34;;;;;;;33.94;44.01;99552.41;7264215;40;20253;31
2023/08/20 14:35:34;;;;;;;5.55;3.15;;;;;;;33.92;43.08;99544.31;7262424;40;20442;31
2023/08/20 14:41:10;;;;;;;5.16;3.40;;;;;;;33.94;43.63;99541.22;7252226;39;20268;31
2023/08/20 14:46:28;;;;;;;4.12;3.12;;;;;;;34.06;43.26;99526.69;7241381;40;20284;31
2023/08/20 14:52:04;;;;;;;3.70;3.00;;;;;;;34.14;42.74;99528.78;7224567;40;20281;31
2023/08/20 14:57:38;;;;;;;3.32;2.80;;;;;;;33.80;42.83;99518.84;7214725;40;20254;31
2023/08/20 15:02:56;;;;;;;5.30;3.10;;;;;;;33.74;42.74;99524.88;7261375;39;20244;31
2023/08/20 15:08:13;;;;;;;4.10;2.95;;;;;;;33.66;43.51;99520.81;7302054;39;20245;31
2023/08/20 15:13:45;;;;;;;3.28;2.92;;;;;;;33.60;45.51;99524.84;7274703;39;20583;31
2023/08/20 15:19:17;;;;;;;3.97;3.00;;;;;;;33.60;44.71;99522.03;7301417;39;20252;31
2023/08/20 15:24:35;;;;;;;4.96;3.20;;;;;;;33.63;44.00;99524.22;7262604;40;20332;31
2023/08/20 15:30:08;;;;;;;4.68;3.33;;;;;;;33.44;43.20;99512.28;7350442;39;20275;31
2023/08/20 15:35:29;;;;;;;4.22;3.05;;;;;;;33.45;44.52;99517.56;7295133;39;20299;31
2023/08/20 15:46:08;;;;;;;5.07;3.33;;;;;;;33.64;43.84;99528.66;7320684;39;20285;31
2023/08/20 15:56:33;;;;;;;4.72;3.03;;;;;;;33.70;43.81;99519.06;7386206;39;20315;31
2023/08/20 16:07:10;;;;;;;4.62;3.00;;;;;;;33.58;44.98;99513.13;7422173;39;20285;31
2023/08/20 16:12:28;;;;;;;5.05;3.00;;;;;;;33.56;44.15;99512.63;7356480;39;20299;31
2023/08/20 16:17:45;;;;;;;5.25;2.97;;;;;;;33.56;44.51;99504.22;7355530;39;20283;31
2023/08/20 16:23:15;;;;;;;3.28;2.87;;;;;;;33.49;45.00;99501.84;7338940;39;20488;31
2023/08/20 16:28:51;;;;;;;5.00;3.26;;;;;;;33.23;45.18;99494.25;7258115;40;20252;31
2023/08/20 16:34:23;;;;;;;6.55;2.70;;;;;;;33.04;44.49;99503.50;7298136;39;20338;31
2023/08/20 16:39:59;;;;;;;4.95;3.10;;;;;;;33.02;45.84;99502.16;7317505;39;20539;31
2023/08/20 16:45:19;;;;;;;5.20;3.45;;;;;;;32.93;45.29;99504.81;7287658;39;20315;31
2023/08/20 16:50:36;;;;;;;5.95;2.90;;;;;;;32.80;45.85;99504.78;7259968;40;20261;31
2023/08/20 16:56:09;;;;;;;9.15;3.40;;;;;;;32.58;46.91;99513.75;7290152;39;20279;31
2023/08/20 17:01:26;;;;;;;5.50;3.10;;;;;;;32.48;48.09;99500.78;7300029;39;21494;31
2023/08/20 17:06:58;;;;;;;5.90;3.00;;;;;;;32.39;48.17;99515.72;7322543;39;21477;31
2023/08/20 17:12:31;;;;;;;5.22;3.32;;;;;;;32.27;48.92;99499.44;7316635;39;20395;31
2023/08/20 17:17:51;;;;;;;5.10;3.22;;;;;;;32.06;49.45;99498.03;7322830;39;20330;31
2023/08/20 17:23:08;;;;;;;5.10;3.35;;;;;;;31.96;49.52;99503.75;7335793;39;20256;31
2023/08/20 17:28:41;;;;;;;5.47;3.35;;;;;;;31.86;49.99;99501.12;7357589;39;20631;31
2023/08/20 17:33:58;;;;;;;4.80;3.40;;;;;;;31.83;50.16;99508.09;7302962;39;20253;31
2023/08/20 17:39:30;;;;;;;5.07;3.33;;;;;;;31.74;50.76;99507.09;7313999;39;20260;31
2023/08/20 17:45:03;;;;;;;4.40;3.28;;;;;;;31.57;51.73;99510.38;7293608;39;20256;31
2023/08/20 17:50:23;;;;;;;3.42;2.97;;;;;;;31.51;52.67;99516.25;7314851;39;20255;31
2023/08/20 17:55:40;;;;;;;5.40;3.20;;;;;;;31.43;54.19;99528.91;7313395;39;20270;31
2023/08/20 18:01:16;;;;;;;4.70;3.70;;;;;;;31.19;55.49;99523.31;7313312;39;20275;31
2023/08/20 18:06:51;;;;;;;6.20;3.45;;;;;;;31.10;56.52;99535.37;7288018;39;21384;31
2023/08/20 18:12:23;;;;;;;4.75;3.40;;;;;;;30.91;57.39;99535.22;7293762;40;20261;31
2023/08/20 18:17:56;;;;;;;4.95;3.70;;;;;;;30.75;58.31;99536.50;7287682;40;20434;31
2023/08/20 18:23:15;;;;;;;5.30;3.55;;;;;;;30.58;57.66;99544.41;7375542;39;20295;31
2023/08/20 18:28:49;;;;;;;4.37;3.78;;;;;;;30.36;58.72;99537.28;7300180;39;20324;31
2023/08/20 18:34:22;;;;;;;5.25;3.58;;;;;;;30.29;58.59;99547.88;7266444;40;20254;31
2023/08/20 18:39:39;;;;;;;5.20;3.58;;;;;;;30.17;58.25;99547.41;7293259;39;20256;31
2023/08/20 18:45:14;;;;;;;6.22;3.80;;;;;;;29.95;59.44;99546.97;7307920;39;20245;31
2023/08/20 18:50:50;;;;;;;9.80;3.70;;;;;;;29.83;59.89;99552.00;7303028;39;20256;31
2023/08/20 18:56:22;;;;;;;5.10;3.40;;;;;;;29.70;59.18;99552.59;7281135;39;20405;31
2023/08/20 19:01:55;;;;;;;5.20;3.70;;;;;;;29.57;60.52;99569.88;7281989;39;20295;31
2023/08/20 19:07:27;;;;;;;6.90;4.05;;;;;;;29.34;60.57;99577.69;7273999;39;20292;31
2023/08/20 19:13:03;;;;;;;6.70;3.70;;;;;;;29.25;59.90;99584.88;7262435;40;21176;31
2023/08/20 19:18:33;;;;;;;7.75;3.80;;;;;;;29.17;59.96;99587.38;7246018;40;20253;31
2023/08/20 19:24:06;;;;;;;4.00;3.60;;;;;;;29.04;59.17;99594.34;7247157;40;20381;31
2023/08/20 19:29:41;;;;;;;4.80;3.50;;;;;;;28.88;60.09;99606.53;7312687;39;20252;31
2023/08/20 19:34:58;;;;;;;9.64;4.00;;;;;;;28.88;60.96;99596.25;7195371;40;20276;31
2023/08/20 19:40:32;;;;;;;7.28;3.78;;;;;;;28.81;60.94;99608.75;7286215;40;20236;31
2023/08/20 19:46:04;;;;;;;5.00;3.60;;;;;;;28.62;60.97;99606.47;7216105;40;20323;31
2023/08/20 19:51:36;;;;;;;5.57;3.33;;;;;;;28.55;60.19;99602.28;7235545;40;20245;31
2023/08/20 19:57:12;;;;;;;5.90;3.55;;;;;;;28.49;59.51;99611.69;7243998;40;20253;31
2023/08/20 20:02:29;;;;;;;6.25;3.95;;;;;;;28.50;60.89;99608.66;7212889;40;20535;31
2023/08/20 20:08:03;;;;;;;6.30;3.80;;;;;;;28.48;60.18;99604.50;7302284;39;20244;31
2023/08/20 20:13:35;;;;;;;4.00;3.55;;;;;;;28.38;59.63;99608.06;7236270;40;20425;31
2023/08/20 20:18:52;;;;;;;6.95;4.10;;;;;;;28.29;59.27;99608.88;7240666;40;20300;31
2023/08/20 20:24:25;;;;;;;4.25;3.55;;;;;;;28.16;61.22;99613.00;7278169;40;20255;31
2023/08/20 20:29:54;;;;;;;6.75;4.10;;;;;;;28.20;61.17;99614.13;7252627;40;20256;31
2023/08/20 20:35:26;;;;;;;6.45;3.90;;;;;;;28.04;61.17;99617.91;7084543;39;20280;31
2023/08/20 20:40:44;;;;;;;3.97;3.55;;;;;;;27.93;61.42;99625.31;7253140;40;20251;31
2023/08/20 20:46:22;;;;;;;5.20;3.65;;;;;;;27.65;63.70;99626.53;7231220;40;20252;31
2023/08/20 20:51:37;;;;;;;5.37;3.97;;;;;;;27.43;63.41;99625.81;7259261;39;20453;31
2023/08/20 20:57:08;;;;;;;6.30;3.85;;;;;;;27.26;64.06;99636.19;7302340;39;20279;31
2023/08/20 21:02:39;;;;;;;8.63;3.77;;;;;;;27.09;64.36;99636.34;7293964;40;20252;31
2023/08/20 21:08:14;;;;;;;7.95;3.95;;;;;;;27.00;64.83;99634.31;7295691;39;20295;31
2023/08/20 21:13:46;;;;;;;5.46;4.10;;;;;;;26.90;65.62;99646.09;7272814;40;20299;31
2023/08/20 21:24:23;;;;;;;5.72;3.85;;;;;;;26.75;66.31;99643.19;7345490;39;21320;31
2023/08/20 21:34:56;;;;;;;6.75;3.65;;;;;;;26.59;66.08;99644.94;7340674;39;21462;31
2023/08/20 21:45:31;;;;;;;6.97;3.85;;;;;;;26.65;66.00;99645.81;7341504;39;21185;31
2023/08/20 21:50:49;;;;;;;6.50;3.60;;;;;;;26.54;65.96;99647.66;7333442;39;20292;31
2023/08/20 22:01:24;;;;;;;6.00;3.80;;;;;;;26.29;67.19;99641.81;7357979;39;20271;31
2023/08/20 22:06:56;;;;;;;6.04;3.94;;;;;;;26.33;66.73;99641.03;7319912;39;20445;31
2023/08/20 22:12:32;;;;;;;4.80;4.30;;;;;;;26.39;66.91;99647.47;7318297;39;20247;31
2023/08/20 22:18:07;;;;;;;5.47;3.60;;;;;;;26.17;67.96;99655.75;7274378;40;20592;31
2023/08/20 22:23:28;;;;;;;5.90;4.30;;;;;;;26.10;68.18;99657.03;7285675;39;20240;31
2023/08/20 22:28:48;;;;;;;9.80;4.80;;;;;;;26.11;68.24;99653.19;7251561;40;20452;31
2023/08/20 22:34:23;;;;;;;5.10;3.95;;;;;;;26.03;68.11;99643.37;7270111;39;20260;31
2023/08/20 22:39:59;;;;;;;7.37;4.03;;;;;;;25.97;68.93;99638.91;7306593;39;20453;31
2023/08/20 22:45:31;;;;;;;6.80;4.35;;;;;;;25.96;68.75;99638.06;7273555;40;20245;31
2023/08/20 22:51:07;;;;;;;7.15;4.35;;;;;;;26.14;68.20;99638.84;7312966;39;20273;31
2023/08/20 23:01:28;;;;;;;5.58;3.96;;;;;;;26.22;67.46;99652.25;7304228;39;20316;31
2023/08/20 23:07:04;;;;;;;4.95;4.20;;;;;;;26.29;67.34;99644.56;7328108;39;20463;31
2023/08/20 23:12:39;;;;;;;4.80;4.33;;;;;;;26.29;67.54;99639.06;7287042;39;20244;31
2023/08/20 23:18:14;;;;;;;5.77;3.77;;;;;;;26.25;67.04;99638.72;7334315;39;20271;31
2023/08/20 23:23:50;;;;;;;6.43;4.10;;;;;;;26.27;66.67;99642.09;7347426;39;20356;31
2023/08/20 23:29:22;;;;;;;5.43;4.25;;;;;;;26.30;66.75;99643.50;7293524;39;20272;31
2023/08/20 23:39:58;;;;;;;8.10;4.10;;;;;;;25.99;67.70;99634.78;7355657;39;21419;31
2023/08/20 23:45:30;;;;;;;7.57;4.35;;;;;;;26.06;66.79;99633.78;7359874;39;20248;31
2023/08/20 23:51:05;;;;;;;5.03;4.00;;;;;;;26.09;67.16;99624.97;7336108;39;20252;31
2023/08/20 23:56:41;;;;;;;5.62;4.10;;;;;;;25.92;67.29;99627.78;7272868;40;20267;31
